sensor_id;sensor_type;location;lat;lon;timestamp;P1;durP1;ratioP1;P2;durP2;ratioP2
28834;SDS011;15969;51.536;11.884;2023-02-28T00:00:31;2.27;;;1.60;;
28834;SDS011;15969;51.536;11.884;2023-02-28T00:02:57;3.10;;;1.77;;
28834;SDS011;15969;51.536;11.884;2023-02-28T00:05:24;2.63;;;1.50;;
28834;SDS011;15969;51.536;11.884;2023-02-28T00:07:51;2.30;;;1.50;;
28834;SDS011;15969;51.536;11.884;2023-02-28T00:10:24;2.03;;;1.83;;
28834;SDS011;15969;51.536;11.884;2023-02-28T00:12:54;2.60;;;2.10;;
28834;SDS011;15969;51.536;11.884;2023-02-28T00:15:23;2.27;;;1.80;;
28834;SDS011;15969;51.536;11.884;2023-02-28T00:17:49;3.53;;;1.97;;
28834;SDS011;15969;51.536;11.884;2023-02-28T00:20:16;2.87;;;1.80;;
28834;SDS011;15969;51.536;11.884;2023-02-28T00:22:43;3.47;;;1.90;;
28834;SDS011;15969;51.536;11.884;2023-02-28T00:25:16;4.17;;;1.80;;
28834;SDS011;15969;51.536;11.884;2023-02-28T00:27:44;3.93;;;1.73;;
28834;SDS011;15969;51.536;11.884;2023-02-28T00:30:12;2.43;;;2.00;;
28834;SDS011;15969;51.536;11.884;2023-02-28T00:32:42;2.73;;;1.90;;
28834;SDS011;15969;51.536;11.884;2023-02-28T00:35:08;4.53;;;1.80;;
28834;SDS011;15969;51.536;11.884;2023-02-28T00:37:34;2.80;;;1.80;;
28834;SDS011;15969;51.536;11.884;2023-02-28T00:40:00;1.97;;;1.60;;
28834;SDS011;15969;51.536;11.884;2023-02-28T00:42:29;2.57;;;1.90;;
28834;SDS011;15969;51.536;11.884;2023-02-28T00:44:55;2.20;;;1.60;;
28834;SDS011;15969;51.536;11.884;2023-02-28T00:47:20;5.23;;;1.80;;
28834;SDS011;15969;51.536;11.884;2023-02-28T00:49:46;2.77;;;1.90;;
28834;SDS011;15969;51.536;11.884;2023-02-28T00:52:12;2.60;;;1.90;;
28834;SDS011;15969;51.536;11.884;2023-02-28T00:54:37;2.60;;;1.70;;
28834;SDS011;15969;51.536;11.884;2023-02-28T00:57:03;1.73;;;1.57;;
28834;SDS011;15969;51.536;11.884;2023-02-28T00:59:29;2.67;;;1.87;;
28834;SDS011;15969;51.536;11.884;2023-02-28T01:01:54;1.90;;;1.70;;
28834;SDS011;15969;51.536;11.884;2023-02-28T01:04:20;2.40;;;1.90;;
28834;SDS011;15969;51.536;11.884;2023-02-28T01:06:46;2.63;;;2.00;;
28834;SDS011;15969;51.536;11.884;2023-02-28T01:09:12;2.53;;;2.17;;
28834;SDS011;15969;51.536;11.884;2023-02-28T01:11:37;3.90;;;1.57;;
28834;SDS011;15969;51.536;11.884;2023-02-28T01:14:05;2.03;;;1.53;;
28834;SDS011;15969;51.536;11.884;2023-02-28T01:16:31;2.43;;;1.70;;
28834;SDS011;15969;51.536;11.884;2023-02-28T01:18:57;3.03;;;1.87;;
28834;SDS011;15969;51.536;11.884;2023-02-28T01:21:23;2.50;;;1.80;;
28834;SDS011;15969;51.536;11.884;2023-02-28T01:23:49;2.33;;;1.77;;
28834;SDS011;15969;51.536;11.884;2023-02-28T01:26:19;2.10;;;1.53;;
28834;SDS011;15969;51.536;11.884;2023-02-28T01:28:47;4.30;;;2.03;;
28834;SDS011;15969;51.536;11.884;2023-02-28T01:31:14;1.73;;;1.47;;
28834;SDS011;15969;51.536;11.884;2023-02-28T01:33:40;2.20;;;1.80;;
28834;SDS011;15969;51.536;11.884;2023-02-28T01:36:08;2.87;;;1.93;;
28834;SDS011;15969;51.536;11.884;2023-02-28T01:38:37;4.10;;;1.83;;
28834;SDS011;15969;51.536;11.884;2023-02-28T01:41:03;3.13;;;2.07;;
28834;SDS011;15969;51.536;11.884;2023-02-28T01:43:31;2.90;;;1.97;;
28834;SDS011;15969;51.536;11.884;2023-02-28T01:46:09;2.93;;;1.80;;
28834;SDS011;15969;51.536;11.884;2023-02-28T01:48:46;2.97;;;2.20;;
28834;SDS011;15969;51.536;11.884;2023-02-28T01:51:40;2.50;;;2.00;;
28834;SDS011;15969;51.536;11.884;2023-02-28T01:54:16;3.40;;;2.07;;
28834;SDS011;15969;51.536;11.884;2023-02-28T01:56:55;2.40;;;2.00;;
28834;SDS011;15969;51.536;11.884;2023-02-28T01:59:39;3.10;;;2.00;;
28834;SDS011;15969;51.536;11.884;2023-02-28T02:02:12;4.10;;;1.90;;
28834;SDS011;15969;51.536;11.884;2023-02-28T02:04:40;2.67;;;1.90;;
28834;SDS011;15969;51.536;11.884;2023-02-28T02:07:19;3.00;;;2.10;;
28834;SDS011;15969;51.536;11.884;2023-02-28T02:09:45;2.40;;;1.83;;
28834;SDS011;15969;51.536;11.884;2023-02-28T02:12:15;4.77;;;2.53;;
28834;SDS011;15969;51.536;11.884;2023-02-28T02:15:14;2.93;;;2.00;;
28834;SDS011;15969;51.536;11.884;2023-02-28T02:17:51;2.90;;;2.23;;
28834;SDS011;15969;51.536;11.884;2023-02-28T02:20:27;2.97;;;2.10;;
28834;SDS011;15969;51.536;11.884;2023-02-28T02:23:27;3.23;;;2.07;;
28834;SDS011;15969;51.536;11.884;2023-02-28T02:29:17;3.50;;;2.30;;
28834;SDS011;15969;51.536;11.884;2023-02-28T02:32:18;2.10;;;1.90;;
28834;SDS011;15969;51.536;11.884;2023-02-28T02:35:22;4.40;;;2.00;;
28834;SDS011;15969;51.536;11.884;2023-02-28T02:38:07;2.70;;;1.90;;
28834;SDS011;15969;51.536;11.884;2023-02-28T02:46:51;3.27;;;2.13;;
28834;SDS011;15969;51.536;11.884;2023-02-28T02:49:33;3.07;;;2.10;;
28834;SDS011;15969;51.536;11.884;2023-02-28T02:52:03;3.87;;;2.00;;
28834;SDS011;15969;51.536;11.884;2023-02-28T02:54:33;3.23;;;2.23;;
28834;SDS011;15969;51.536;11.884;2023-02-28T02:57:03;3.53;;;2.27;;
28834;SDS011;15969;51.536;11.884;2023-02-28T02:59:34;3.07;;;2.20;;
28834;SDS011;15969;51.536;11.884;2023-02-28T03:02:03;4.13;;;2.10;;
28834;SDS011;15969;51.536;11.884;2023-02-28T03:04:34;2.40;;;2.20;;
28834;SDS011;15969;51.536;11.884;2023-02-28T03:07:07;4.27;;;2.47;;
28834;SDS011;15969;51.536;11.884;2023-02-28T03:09:33;2.67;;;1.97;;
28834;SDS011;15969;51.536;11.884;2023-02-28T03:12:00;3.90;;;2.17;;
28834;SDS011;15969;51.536;11.884;2023-02-28T03:17:52;2.73;;;2.10;;
28834;SDS011;15969;51.536;11.884;2023-02-28T03:20:40;3.10;;;1.90;;
28834;SDS011;15969;51.536;11.884;2023-02-28T03:23:17;3.20;;;2.20;;
28834;SDS011;15969;51.536;11.884;2023-02-28T03:25:54;2.40;;;1.80;;
28834;SDS011;15969;51.536;11.884;2023-02-28T03:28:38;3.23;;;1.93;;
28834;SDS011;15969;51.536;11.884;2023-02-28T03:34:04;3.07;;;2.40;;
28834;SDS011;15969;51.536;11.884;2023-02-28T03:36:35;4.60;;;2.00;;
28834;SDS011;15969;51.536;11.884;2023-02-28T03:39:27;3.63;;;2.20;;
28834;SDS011;15969;51.536;11.884;2023-02-28T03:42:04;2.77;;;2.03;;
28834;SDS011;15969;51.536;11.884;2023-02-28T03:44:49;3.20;;;2.27;;
28834;SDS011;15969;51.536;11.884;2023-02-28T03:47:21;2.90;;;2.30;;
28834;SDS011;15969;51.536;11.884;2023-02-28T03:50:07;3.20;;;2.33;;
28834;SDS011;15969;51.536;11.884;2023-02-28T03:52:35;3.73;;;2.43;;
28834;SDS011;15969;51.536;11.884;2023-02-28T03:55:10;3.67;;;2.53;;
28834;SDS011;15969;51.536;11.884;2023-02-28T04:00:35;3.87;;;2.30;;
28834;SDS011;15969;51.536;11.884;2023-02-28T04:03:02;2.43;;;2.10;;
28834;SDS011;15969;51.536;11.884;2023-02-28T04:05:29;4.50;;;2.60;;
28834;SDS011;15969;51.536;11.884;2023-02-28T04:08:03;5.27;;;2.63;;
28834;SDS011;15969;51.536;11.884;2023-02-28T04:10:33;4.43;;;2.90;;
28834;SDS011;15969;51.536;11.884;2023-02-28T04:12:58;3.03;;;2.07;;
28834;SDS011;15969;51.536;11.884;2023-02-28T04:15:24;3.17;;;2.30;;
28834;SDS011;15969;51.536;11.884;2023-02-28T04:17:52;3.43;;;2.43;;
28834;SDS011;15969;51.536;11.884;2023-02-28T04:20:17;6.30;;;2.90;;
28834;SDS011;15969;51.536;11.884;2023-02-28T04:22:43;2.97;;;2.23;;
28834;SDS011;15969;51.536;11.884;2023-02-28T04:25:09;5.03;;;2.70;;
28834;SDS011;15969;51.536;11.884;2023-02-28T04:27:35;4.53;;;2.40;;
28834;SDS011;15969;51.536;11.884;2023-02-28T04:30:00;2.60;;;2.20;;
28834;SDS011;15969;51.536;11.884;2023-02-28T04:32:26;4.53;;;2.40;;
28834;SDS011;15969;51.536;11.884;2023-02-28T04:34:52;4.87;;;2.47;;
28834;SDS011;15969;51.536;11.884;2023-02-28T04:37:17;5.10;;;2.37;;
28834;SDS011;15969;51.536;11.884;2023-02-28T04:39:43;3.53;;;2.40;;
28834;SDS011;15969;51.536;11.884;2023-02-28T04:42:09;4.60;;;3.00;;
28834;SDS011;15969;51.536;11.884;2023-02-28T04:44:35;4.17;;;2.87;;
28834;SDS011;15969;51.536;11.884;2023-02-28T04:47:01;4.57;;;2.60;;
28834;SDS011;15969;51.536;11.884;2023-02-28T04:49:27;4.20;;;2.50;;
28834;SDS011;15969;51.536;11.884;2023-02-28T04:51:52;3.20;;;2.40;;
28834;SDS011;15969;51.536;11.884;2023-02-28T04:54:18;3.70;;;2.73;;
28834;SDS011;15969;51.536;11.884;2023-02-28T04:56:44;3.60;;;2.60;;
28834;SDS011;15969;51.536;11.884;2023-02-28T04:59:10;3.20;;;2.47;;
28834;SDS011;15969;51.536;11.884;2023-02-28T05:01:35;4.37;;;2.40;;
28834;SDS011;15969;51.536;11.884;2023-02-28T05:04:02;3.53;;;2.53;;
28834;SDS011;15969;51.536;11.884;2023-02-28T05:06:30;4.40;;;2.63;;
28834;SDS011;15969;51.536;11.884;2023-02-28T05:08:57;5.53;;;2.87;;
28834;SDS011;15969;51.536;11.884;2023-02-28T05:11:25;4.73;;;2.83;;
28834;SDS011;15969;51.536;11.884;2023-02-28T05:14:00;3.80;;;2.83;;
28834;SDS011;15969;51.536;11.884;2023-02-28T05:16:39;3.37;;;2.67;;
28834;SDS011;15969;51.536;11.884;2023-02-28T05:19:05;3.77;;;2.33;;
28834;SDS011;15969;51.536;11.884;2023-02-28T05:21:31;2.97;;;2.30;;
28834;SDS011;15969;51.536;11.884;2023-02-28T05:24:01;4.80;;;2.53;;
28834;SDS011;15969;51.536;11.884;2023-02-28T05:26:30;3.50;;;2.67;;
28834;SDS011;15969;51.536;11.884;2023-02-28T05:29:00;3.93;;;2.60;;
28834;SDS011;15969;51.536;11.884;2023-02-28T05:31:25;4.60;;;2.57;;
28834;SDS011;15969;51.536;11.884;2023-02-28T05:33:51;4.77;;;2.73;;
28834;SDS011;15969;51.536;11.884;2023-02-28T05:36:17;4.00;;;2.53;;
28834;SDS011;15969;51.536;11.884;2023-02-28T05:38:45;4.43;;;2.50;;
28834;SDS011;15969;51.536;11.884;2023-02-28T05:41:13;3.80;;;2.47;;
28834;SDS011;15969;51.536;11.884;2023-02-28T05:43:39;3.27;;;2.77;;
28834;SDS011;15969;51.536;11.884;2023-02-28T05:46:06;4.73;;;2.43;;
28834;SDS011;15969;51.536;11.884;2023-02-28T05:48:34;4.97;;;2.73;;
28834;SDS011;15969;51.536;11.884;2023-02-28T05:51:01;3.60;;;2.80;;
28834;SDS011;15969;51.536;11.884;2023-02-28T05:53:28;4.77;;;2.97;;
28834;SDS011;15969;51.536;11.884;2023-02-28T05:55:54;6.63;;;3.13;;
28834;SDS011;15969;51.536;11.884;2023-02-28T05:58:20;3.57;;;2.73;;
28834;SDS011;15969;51.536;11.884;2023-02-28T06:00:46;4.03;;;2.67;;
28834;SDS011;15969;51.536;11.884;2023-02-28T06:03:13;4.70;;;2.77;;
28834;SDS011;15969;51.536;11.884;2023-02-28T06:05:38;3.73;;;2.63;;
28834;SDS011;15969;51.536;11.884;2023-02-28T06:08:04;5.40;;;2.87;;
28834;SDS011;15969;51.536;11.884;2023-02-28T06:10:32;3.83;;;2.50;;
28834;SDS011;15969;51.536;11.884;2023-02-28T06:13:01;4.40;;;2.63;;
28834;SDS011;15969;51.536;11.884;2023-02-28T06:15:28;5.23;;;3.00;;
28834;SDS011;15969;51.536;11.884;2023-02-28T06:17:54;4.67;;;2.90;;
28834;SDS011;15969;51.536;11.884;2023-02-28T06:20:21;4.50;;;3.03;;
28834;SDS011;15969;51.536;11.884;2023-02-28T06:22:48;4.47;;;2.93;;
28834;SDS011;15969;51.536;11.884;2023-02-28T06:25:15;4.83;;;3.10;;
28834;SDS011;15969;51.536;11.884;2023-02-28T06:27:41;3.60;;;2.90;;
28834;SDS011;15969;51.536;11.884;2023-02-28T06:30:08;5.10;;;2.73;;
28834;SDS011;15969;51.536;11.884;2023-02-28T06:32:35;4.33;;;2.87;;
28834;SDS011;15969;51.536;11.884;2023-02-28T06:35:01;4.67;;;3.20;;
28834;SDS011;15969;51.536;11.884;2023-02-28T06:37:27;4.37;;;2.83;;
28834;SDS011;15969;51.536;11.884;2023-02-28T06:39:53;4.97;;;3.80;;
28834;SDS011;15969;51.536;11.884;2023-02-28T06:42:23;4.87;;;3.23;;
28834;SDS011;15969;51.536;11.884;2023-02-28T06:44:57;4.73;;;3.10;;
28834;SDS011;15969;51.536;11.884;2023-02-28T06:47:23;5.83;;;3.70;;
28834;SDS011;15969;51.536;11.884;2023-02-28T06:49:49;4.10;;;3.27;;
28834;SDS011;15969;51.536;11.884;2023-02-28T06:52:15;5.87;;;3.00;;
28834;SDS011;15969;51.536;11.884;2023-02-28T06:54:41;4.17;;;3.27;;
28834;SDS011;15969;51.536;11.884;2023-02-28T06:57:07;5.80;;;3.57;;
28834;SDS011;15969;51.536;11.884;2023-02-28T06:59:33;5.33;;;4.00;;
28834;SDS011;15969;51.536;11.884;2023-02-28T07:02:00;5.93;;;2.90;;
28834;SDS011;15969;51.536;11.884;2023-02-28T07:04:27;5.07;;;3.70;;
28834;SDS011;15969;51.536;11.884;2023-02-28T07:06:54;8.67;;;3.37;;
28834;SDS011;15969;51.536;11.884;2023-02-28T07:09:21;4.60;;;3.63;;
28834;SDS011;15969;51.536;11.884;2023-02-28T07:11:47;6.73;;;3.73;;
28834;SDS011;15969;51.536;11.884;2023-02-28T07:14:13;3.73;;;3.10;;
28834;SDS011;15969;51.536;11.884;2023-02-28T07:16:39;5.53;;;3.27;;
28834;SDS011;15969;51.536;11.884;2023-02-28T07:19:05;4.13;;;3.00;;
28834;SDS011;15969;51.536;11.884;2023-02-28T07:21:30;6.63;;;3.30;;
28834;SDS011;15969;51.536;11.884;2023-02-28T07:23:56;5.60;;;3.53;;
28834;SDS011;15969;51.536;11.884;2023-02-28T07:26:22;5.87;;;3.40;;
28834;SDS011;15969;51.536;11.884;2023-02-28T07:28:48;5.60;;;3.70;;
28834;SDS011;15969;51.536;11.884;2023-02-28T07:31:14;5.03;;;3.13;;
28834;SDS011;15969;51.536;11.884;2023-02-28T07:33:41;5.87;;;3.57;;
28834;SDS011;15969;51.536;11.884;2023-02-28T07:36:08;5.83;;;3.73;;
28834;SDS011;15969;51.536;11.884;2023-02-28T07:38:40;4.37;;;3.40;;
28834;SDS011;15969;51.536;11.884;2023-02-28T07:41:08;8.43;;;3.83;;
28834;SDS011;15969;51.536;11.884;2023-02-28T07:43:34;4.43;;;3.40;;
28834;SDS011;15969;51.536;11.884;2023-02-28T07:46:01;5.93;;;3.57;;
28834;SDS011;15969;51.536;11.884;2023-02-28T07:48:28;3.57;;;3.27;;
28834;SDS011;15969;51.536;11.884;2023-02-28T07:50:57;6.33;;;3.83;;
28834;SDS011;15969;51.536;11.884;2023-02-28T07:53:23;5.03;;;3.30;;
28834;SDS011;15969;51.536;11.884;2023-02-28T07:55:49;4.57;;;3.47;;
28834;SDS011;15969;51.536;11.884;2023-02-28T07:58:15;5.10;;;3.80;;
28834;SDS011;15969;51.536;11.884;2023-02-28T08:00:41;4.77;;;3.30;;
28834;SDS011;15969;51.536;11.884;2023-02-28T08:03:08;3.70;;;3.23;;
28834;SDS011;15969;51.536;11.884;2023-02-28T08:05:40;4.87;;;3.60;;
28834;SDS011;15969;51.536;11.884;2023-02-28T08:08:06;5.23;;;3.43;;
28834;SDS011;15969;51.536;11.884;2023-02-28T08:10:32;4.67;;;3.30;;
28834;SDS011;15969;51.536;11.884;2023-02-28T08:12:58;7.70;;;3.43;;
28834;SDS011;15969;51.536;11.884;2023-02-28T08:15:24;5.83;;;3.70;;
28834;SDS011;15969;51.536;11.884;2023-02-28T08:17:49;5.37;;;3.50;;
28834;SDS011;15969;51.536;11.884;2023-02-28T08:20:15;4.57;;;3.97;;
28834;SDS011;15969;51.536;11.884;2023-02-28T08:22:41;5.40;;;3.60;;
28834;SDS011;15969;51.536;11.884;2023-02-28T08:25:07;5.80;;;3.80;;
28834;SDS011;15969;51.536;11.884;2023-02-28T08:27:33;4.90;;;3.57;;
28834;SDS011;15969;51.536;11.884;2023-02-28T08:30:00;7.23;;;4.03;;
28834;SDS011;15969;51.536;11.884;2023-02-28T08:32:26;4.87;;;4.03;;
28834;SDS011;15969;51.536;11.884;2023-02-28T08:34:52;7.20;;;4.47;;
28834;SDS011;15969;51.536;11.884;2023-02-28T08:37:17;8.07;;;3.93;;
28834;SDS011;15969;51.536;11.884;2023-02-28T08:39:43;6.03;;;3.83;;
28834;SDS011;15969;51.536;11.884;2023-02-28T08:42:09;5.30;;;3.80;;
28834;SDS011;15969;51.536;11.884;2023-02-28T08:44:34;5.77;;;4.20;;
28834;SDS011;15969;51.536;11.884;2023-02-28T08:47:00;6.30;;;4.30;;
28834;SDS011;15969;51.536;11.884;2023-02-28T08:49:26;5.03;;;3.83;;
28834;SDS011;15969;51.536;11.884;2023-02-28T08:51:51;6.07;;;3.87;;
28834;SDS011;15969;51.536;11.884;2023-02-28T08:54:17;6.70;;;4.17;;
28834;SDS011;15969;51.536;11.884;2023-02-28T08:56:44;6.30;;;4.00;;
28834;SDS011;15969;51.536;11.884;2023-02-28T08:59:12;7.03;;;3.63;;
28834;SDS011;15969;51.536;11.884;2023-02-28T09:01:38;6.10;;;3.97;;
28834;SDS011;15969;51.536;11.884;2023-02-28T09:04:06;5.10;;;3.43;;
28834;SDS011;15969;51.536;11.884;2023-02-28T09:06:33;6.50;;;4.37;;
28834;SDS011;15969;51.536;11.884;2023-02-28T09:08:59;6.50;;;3.60;;
28834;SDS011;15969;51.536;11.884;2023-02-28T09:11:26;4.33;;;3.47;;
28834;SDS011;15969;51.536;11.884;2023-02-28T09:13:52;4.90;;;3.77;;
28834;SDS011;15969;51.536;11.884;2023-02-28T09:16:20;5.37;;;3.60;;
28834;SDS011;15969;51.536;11.884;2023-02-28T09:18:46;6.40;;;3.93;;
28834;SDS011;15969;51.536;11.884;2023-02-28T09:21:13;6.63;;;4.17;;
28834;SDS011;15969;51.536;11.884;2023-02-28T09:23:42;7.10;;;4.10;;
28834;SDS011;15969;51.536;11.884;2023-02-28T09:26:16;7.87;;;4.13;;
28834;SDS011;15969;51.536;11.884;2023-02-28T09:28:51;5.37;;;4.17;;
28834;SDS011;15969;51.536;11.884;2023-02-28T09:31:23;5.87;;;4.20;;
28834;SDS011;15969;51.536;11.884;2023-02-28T09:33:53;5.43;;;4.47;;
28834;SDS011;15969;51.536;11.884;2023-02-28T09:36:22;6.67;;;4.80;;
28834;SDS011;15969;51.536;11.884;2023-02-28T09:38:49;6.30;;;4.77;;
28834;SDS011;15969;51.536;11.884;2023-02-28T09:41:20;4.93;;;4.10;;
28834;SDS011;15969;51.536;11.884;2023-02-28T09:43:52;5.53;;;4.30;;
28834;SDS011;15969;51.536;11.884;2023-02-28T09:46:29;4.87;;;4.00;;
28834;SDS011;15969;51.536;11.884;2023-02-28T09:49:00;7.60;;;4.20;;
28834;SDS011;15969;51.536;11.884;2023-02-28T09:51:43;6.63;;;4.60;;
28834;SDS011;15969;51.536;11.884;2023-02-28T09:54:17;4.80;;;3.70;;
28834;SDS011;15969;51.536;11.884;2023-02-28T09:59:35;4.73;;;3.10;;
28834;SDS011;15969;51.536;11.884;2023-02-28T10:05:47;4.63;;;3.10;;
28834;SDS011;15969;51.536;11.884;2023-02-28T10:08:25;6.23;;;3.00;;
28834;SDS011;15969;51.536;11.884;2023-02-28T10:10:57;4.93;;;3.30;;
28834;SDS011;15969;51.536;11.884;2023-02-28T10:13:28;3.10;;;2.73;;
28834;SDS011;15969;51.536;11.884;2023-02-28T10:16:03;4.27;;;3.17;;
28834;SDS011;15969;51.536;11.884;2023-02-28T10:18:39;4.87;;;3.43;;
28834;SDS011;15969;51.536;11.884;2023-02-28T10:27:06;4.50;;;2.77;;
28834;SDS011;15969;51.536;11.884;2023-02-28T10:29:44;5.10;;;3.50;;
28834;SDS011;15969;51.536;11.884;2023-02-28T10:32:16;4.50;;;3.40;;
28834;SDS011;15969;51.536;11.884;2023-02-28T10:34:52;3.87;;;3.00;;
28834;SDS011;15969;51.536;11.884;2023-02-28T10:37:25;5.00;;;3.07;;
28834;SDS011;15969;51.536;11.884;2023-02-28T10:39:52;5.13;;;3.27;;
28834;SDS011;15969;51.536;11.884;2023-02-28T10:42:22;4.77;;;3.20;;
28834;SDS011;15969;51.536;11.884;2023-02-28T10:47:51;4.30;;;3.33;;
28834;SDS011;15969;51.536;11.884;2023-02-28T10:55:55;4.33;;;3.43;;
28834;SDS011;15969;51.536;11.884;2023-02-28T11:01:21;5.33;;;3.50;;
28834;SDS011;15969;51.536;11.884;2023-02-28T11:07:36;5.73;;;4.10;;
28834;SDS011;15969;51.536;11.884;2023-02-28T11:09:46;5.13;;;3.90;;
28834;SDS011;15969;51.536;11.884;2023-02-28T11:12:37;4.43;;;3.83;;
28834;SDS011;15969;51.536;11.884;2023-02-28T11:15:23;5.90;;;3.97;;
28834;SDS011;15969;51.536;11.884;2023-02-28T11:20:36;4.50;;;3.70;;
28834;SDS011;15969;51.536;11.884;2023-02-28T11:23:03;4.57;;;3.77;;
28834;SDS011;15969;51.536;11.884;2023-02-28T11:25:30;5.03;;;4.20;;
28834;SDS011;15969;51.536;11.884;2023-02-28T11:28:00;5.17;;;3.90;;
28834;SDS011;15969;51.536;11.884;2023-02-28T11:30:35;6.23;;;4.30;;
28834;SDS011;15969;51.536;11.884;2023-02-28T11:35:57;5.97;;;3.90;;
28834;SDS011;15969;51.536;11.884;2023-02-28T11:38:28;5.17;;;3.97;;
28834;SDS011;15969;51.536;11.884;2023-02-28T11:41:02;5.43;;;4.03;;
28834;SDS011;15969;51.536;11.884;2023-02-28T11:46:50;6.40;;;4.60;;
28834;SDS011;15969;51.536;11.884;2023-02-28T11:49:28;4.97;;;4.47;;
28834;SDS011;15969;51.536;11.884;2023-02-28T11:52:14;7.60;;;5.17;;
28834;SDS011;15969;51.536;11.884;2023-02-28T11:58:05;5.13;;;4.40;;
28834;SDS011;15969;51.536;11.884;2023-02-28T12:01:00;6.70;;;4.60;;
28834;SDS011;15969;51.536;11.884;2023-02-28T12:04:03;5.13;;;4.50;;
28834;SDS011;15969;51.536;11.884;2023-02-28T12:07:03;5.87;;;4.57;;
28834;SDS011;15969;51.536;11.884;2023-02-28T12:10:04;7.23;;;4.83;;
28834;SDS011;15969;51.536;11.884;2023-02-28T12:13:11;5.50;;;4.27;;
28834;SDS011;15969;51.536;11.884;2023-02-28T12:15:55;7.00;;;4.80;;
28834;SDS011;15969;51.536;11.884;2023-02-28T12:18:53;6.23;;;4.70;;
28834;SDS011;15969;51.536;11.884;2023-02-28T12:21:42;6.60;;;4.47;;
28834;SDS011;15969;51.536;11.884;2023-02-28T12:27:46;7.37;;;4.90;;
28834;SDS011;15969;51.536;11.884;2023-02-28T12:30:16;6.33;;;4.83;;
28834;SDS011;15969;51.536;11.884;2023-02-28T12:38:17;8.73;;;4.97;;
28834;SDS011;15969;51.536;11.884;2023-02-28T12:43:33;6.03;;;4.50;;
28834;SDS011;15969;51.536;11.884;2023-02-28T12:46:25;6.67;;;5.07;;
28834;SDS011;15969;51.536;11.884;2023-02-28T12:49:09;6.90;;;4.63;;
28834;SDS011;15969;51.536;11.884;2023-02-28T12:51:42;6.60;;;4.93;;
28834;SDS011;15969;51.536;11.884;2023-02-28T12:56:56;6.20;;;4.43;;
28834;SDS011;15969;51.536;11.884;2023-02-28T13:05:56;7.17;;;5.13;;
28834;SDS011;15969;51.536;11.884;2023-02-28T13:09:04;7.00;;;4.73;;
28834;SDS011;15969;51.536;11.884;2023-02-28T13:11:38;5.53;;;4.67;;
28834;SDS011;15969;51.536;11.884;2023-02-28T13:17:10;5.07;;;4.50;;
28834;SDS011;15969;51.536;11.884;2023-02-28T13:24:54;6.13;;;4.67;;
28834;SDS011;15969;51.536;11.884;2023-02-28T13:29:56;6.17;;;4.60;;
28834;SDS011;15969;51.536;11.884;2023-02-28T13:39:58;4.70;;;4.23;;
28834;SDS011;15969;51.536;11.884;2023-02-28T13:43:01;6.87;;;4.80;;
28834;SDS011;15969;51.536;11.884;2023-02-28T13:45:28;5.43;;;4.70;;
28834;SDS011;15969;51.536;11.884;2023-02-28T13:48:03;8.50;;;5.17;;
28834;SDS011;15969;51.536;11.884;2023-02-28T13:50:44;5.60;;;4.63;;
28834;SDS011;15969;51.536;11.884;2023-02-28T13:55:46;6.67;;;4.60;;
28834;SDS011;15969;51.536;11.884;2023-02-28T13:58:33;7.63;;;4.83;;
28834;SDS011;15969;51.536;11.884;2023-02-28T14:04:23;6.77;;;5.17;;
28834;SDS011;15969;51.536;11.884;2023-02-28T14:07:18;8.70;;;5.13;;
28834;SDS011;15969;51.536;11.884;2023-02-28T14:09:51;6.77;;;4.77;;
28834;SDS011;15969;51.536;11.884;2023-02-28T14:15:41;7.43;;;5.03;;
28834;SDS011;15969;51.536;11.884;2023-02-28T14:20:47;6.07;;;4.93;;
28834;SDS011;15969;51.536;11.884;2023-02-28T14:29:32;5.43;;;4.93;;
28834;SDS011;15969;51.536;11.884;2023-02-28T14:34:55;5.70;;;4.70;;
28834;SDS011;15969;51.536;11.884;2023-02-28T14:37:43;5.90;;;4.53;;
28834;SDS011;15969;51.536;11.884;2023-02-28T14:40:16;5.77;;;3.67;;
28834;SDS011;15969;51.536;11.884;2023-02-28T14:43:05;4.70;;;4.20;;
28834;SDS011;15969;51.536;11.884;2023-02-28T14:45:42;6.57;;;4.57;;
28834;SDS011;15969;51.536;11.884;2023-02-28T14:48:09;4.57;;;3.70;;
28834;SDS011;15969;51.536;11.884;2023-02-28T14:50:36;5.47;;;4.50;;
28834;SDS011;15969;51.536;11.884;2023-02-28T14:53:03;5.30;;;4.13;;
28834;SDS011;15969;51.536;11.884;2023-02-28T14:55:32;6.73;;;4.10;;
28834;SDS011;15969;51.536;11.884;2023-02-28T14:58:01;5.00;;;4.27;;
28834;SDS011;15969;51.536;11.884;2023-02-28T15:00:32;5.07;;;3.93;;
28834;SDS011;15969;51.536;11.884;2023-02-28T15:03:17;5.17;;;3.93;;
28834;SDS011;15969;51.536;11.884;2023-02-28T15:05:55;5.20;;;4.30;;
28834;SDS011;15969;51.536;11.884;2023-02-28T15:08:27;4.43;;;3.80;;
28834;SDS011;15969;51.536;11.884;2023-02-28T15:11:16;5.57;;;4.20;;
28834;SDS011;15969;51.536;11.884;2023-02-28T15:16:19;4.87;;;3.77;;
28834;SDS011;15969;51.536;11.884;2023-02-28T15:21:27;6.00;;;4.60;;
28834;SDS011;15969;51.536;11.884;2023-02-28T15:23:59;3.90;;;3.50;;
28834;SDS011;15969;51.536;11.884;2023-02-28T15:26:34;4.97;;;4.03;;
28834;SDS011;15969;51.536;11.884;2023-02-28T15:29:14;4.57;;;3.60;;
28834;SDS011;15969;51.536;11.884;2023-02-28T15:31:45;4.07;;;3.67;;
28834;SDS011;15969;51.536;11.884;2023-02-28T15:34:19;4.23;;;3.80;;
28834;SDS011;15969;51.536;11.884;2023-02-28T15:40:07;4.60;;;3.80;;
28834;SDS011;15969;51.536;11.884;2023-02-28T15:43:13;5.17;;;3.87;;
28834;SDS011;15969;51.536;11.884;2023-02-28T15:46:07;4.80;;;3.90;;
28834;SDS011;15969;51.536;11.884;2023-02-28T15:48:36;5.23;;;4.33;;
28834;SDS011;15969;51.536;11.884;2023-02-28T15:51:20;4.70;;;3.90;;
28834;SDS011;15969;51.536;11.884;2023-02-28T15:53:57;5.07;;;4.37;;
28834;SDS011;15969;51.536;11.884;2023-02-28T15:56:27;7.13;;;4.70;;
28834;SDS011;15969;51.536;11.884;2023-02-28T15:58:56;4.90;;;4.50;;
28834;SDS011;15969;51.536;11.884;2023-02-28T16:01:26;4.83;;;4.13;;
28834;SDS011;15969;51.536;11.884;2023-02-28T16:03:59;5.20;;;4.63;;
28834;SDS011;15969;51.536;11.884;2023-02-28T16:06:35;5.53;;;4.40;;
28834;SDS011;15969;51.536;11.884;2023-02-28T16:09:14;5.97;;;4.70;;
28834;SDS011;15969;51.536;11.884;2023-02-28T16:11:45;5.40;;;4.30;;
28834;SDS011;15969;51.536;11.884;2023-02-28T16:14:17;6.20;;;4.27;;
28834;SDS011;15969;51.536;11.884;2023-02-28T16:16:48;39.50;;;8.00;;
28834;SDS011;15969;51.536;11.884;2023-02-28T16:19:16;5.90;;;4.33;;
28834;SDS011;15969;51.536;11.884;2023-02-28T16:21:43;6.20;;;4.90;;
28834;SDS011;15969;51.536;11.884;2023-02-28T16:24:09;6.40;;;4.90;;
28834;SDS011;15969;51.536;11.884;2023-02-28T16:26:35;6.77;;;5.30;;
28834;SDS011;15969;51.536;11.884;2023-02-28T16:29:04;5.90;;;4.70;;
28834;SDS011;15969;51.536;11.884;2023-02-28T16:31:30;6.20;;;4.47;;
28834;SDS011;15969;51.536;11.884;2023-02-28T16:34:00;7.40;;;4.63;;
28834;SDS011;15969;51.536;11.884;2023-02-28T16:36:26;7.17;;;4.67;;
28834;SDS011;15969;51.536;11.884;2023-02-28T16:38:53;5.30;;;4.73;;
28834;SDS011;15969;51.536;11.884;2023-02-28T16:41:26;6.63;;;4.57;;
28834;SDS011;15969;51.536;11.884;2023-02-28T16:43:53;5.90;;;4.77;;
28834;SDS011;15969;51.536;11.884;2023-02-28T16:46:25;6.17;;;4.60;;
28834;SDS011;15969;51.536;11.884;2023-02-28T16:48:56;6.23;;;4.40;;
28834;SDS011;15969;51.536;11.884;2023-02-28T16:51:22;7.13;;;4.70;;
28834;SDS011;15969;51.536;11.884;2023-02-28T16:53:47;6.17;;;5.27;;
28834;SDS011;15969;51.536;11.884;2023-02-28T16:56:23;6.03;;;4.37;;
28834;SDS011;15969;51.536;11.884;2023-02-28T16:58:50;5.47;;;4.90;;
28834;SDS011;15969;51.536;11.884;2023-02-28T17:01:16;6.50;;;5.27;;
28834;SDS011;15969;51.536;11.884;2023-02-28T17:03:46;5.77;;;5.13;;